Buerarema, Brazil
Current Conditions -  °F | °C
As of 3:00 AM on Saturday 20 Dec 2014 (Local Time) from SBIL Reporting Station
Broken Clouds Broken Clouds  
Wind Chill: 75°   Ceiling: 10000
Heat Index: 75°   Visibility: 5mi
Dew Point: 73°   Wind: 5mph
Humidity: 94%   Direction: 270°W
Pressure: 29.91"   Gusts: NA
Location:  14.96°S, 39.3°W
Report Text: SBIL 200600Z 27004KT 8000 FEW015 SCT030 BKN100 24/23 Q1013
Loading
Personal Weather Stations






























Interactive Weather Map New forecast layout! Learn more

10-Day Weather Forecast

Advertisements
Track Severe Weather on mobile